createdAt,value
2022-12-17T00:01:08.812Z,2.60
2022-12-17T00:06:29.343Z,2.60
2022-12-17T00:11:50.137Z,2.60
2022-12-17T00:17:12.528Z,2.60
2022-12-17T00:22:33.375Z,2.70
2022-12-17T00:27:53.771Z,2.80
2022-12-17T00:33:15.617Z,2.60
2022-12-17T00:38:51.148Z,2.60
2022-12-17T00:44:12.657Z,2.60
2022-12-17T00:49:39.746Z,2.50
2022-12-17T00:55:00.121Z,2.50
2022-12-17T01:00:20.499Z,2.60
2022-12-17T01:05:42.494Z,2.60
2022-12-17T01:11:02.759Z,2.50
2022-12-17T01:16:23.824Z,2.50
2022-12-17T01:21:45.607Z,2.40
2022-12-17T01:27:06.057Z,2.40
2022-12-17T01:32:26.677Z,2.30
2022-12-17T01:37:51.471Z,2.20
2022-12-17T01:43:11.817Z,2.10
2022-12-17T01:48:35.388Z,2.00
2022-12-17T01:54:00.351Z,1.90
2022-12-17T01:59:22.888Z,1.80
2022-12-17T02:04:43.971Z,1.70
2022-12-17T02:10:11.939Z,1.70
2022-12-17T02:15:37.484Z,1.60
2022-12-17T02:21:03.349Z,1.60
2022-12-17T02:26:30.567Z,1.60
2022-12-17T02:31:53.782Z,1.60
2022-12-17T02:37:14.638Z,1.60
2022-12-17T02:42:36.126Z,1.60
2022-12-17T02:47:58.448Z,1.70
2022-12-17T02:53:21.066Z,1.60
2022-12-17T02:58:41.791Z,1.60
2022-12-17T03:04:03.768Z,1.50
2022-12-17T03:09:24.380Z,1.40
2022-12-17T03:14:44.662Z,1.40
2022-12-17T03:20:06.584Z,1.40
2022-12-17T03:25:27.658Z,1.40
2022-12-17T03:30:49.271Z,1.30
2022-12-17T03:36:13.355Z,1.40
2022-12-17T03:41:45.447Z,1.30
2022-12-17T03:47:05.989Z,1.30
2022-12-17T03:52:27.671Z,1.20
2022-12-17T03:57:48.307Z,1.10
2022-12-17T04:03:10.916Z,1.10
2022-12-17T04:08:32.691Z,1.10
2022-12-17T04:13:52.996Z,1.10
2022-12-17T04:19:13.988Z,1.10
2022-12-17T04:24:35.697Z,1.10
2022-12-17T04:29:56.025Z,1.10
2022-12-17T04:35:15.514Z,1.20
2022-12-17T04:40:37.267Z,1.20
2022-12-17T04:45:57.588Z,1.30
2022-12-17T04:51:18.196Z,1.30
2022-12-17T04:56:40.420Z,1.30
2022-12-17T05:02:00.983Z,1.20
2022-12-17T05:07:21.803Z,1.10
2022-12-17T05:12:43.755Z,1.10
2022-12-17T05:18:04.108Z,1.00
2022-12-17T05:23:25.047Z,0.90
2022-12-17T05:28:47.037Z,0.90
2022-12-17T05:34:07.424Z,0.90
2022-12-17T05:39:28.065Z,0.90
2022-12-17T05:44:50.204Z,0.90
2022-12-17T05:50:10.584Z,0.90
2022-12-17T05:55:31.299Z,0.90
2022-12-17T06:00:53.190Z,1.00
2022-12-17T06:06:14.755Z,0.90
2022-12-17T06:11:35.429Z,1.00
2022-12-17T06:16:57.218Z,1.00
2022-12-17T06:22:17.722Z,1.00
2022-12-17T06:27:38.112Z,0.90
2022-12-17T06:32:59.850Z,0.80
2022-12-17T06:38:22.007Z,0.70
2022-12-17T06:43:42.720Z,0.60
2022-12-17T06:49:04.638Z,0.50
2022-12-17T06:54:25.240Z,0.50
2022-12-17T06:59:45.760Z,0.30
2022-12-17T07:05:07.628Z,0.20
2022-12-17T07:10:28.031Z,0.20
2022-12-17T07:15:48.575Z,0.20
2022-12-17T07:21:12.256Z,0.30
2022-12-17T07:26:33.200Z,0.40
2022-12-17T07:31:53.654Z,0.50
2022-12-17T07:37:20.322Z,0.60
2022-12-17T07:42:52.738Z,0.60
2022-12-17T07:48:13.722Z,0.70
2022-12-17T07:53:35.732Z,0.70
2022-12-17T07:58:56.895Z,0.60
2022-12-17T08:04:17.151Z,0.60
2022-12-17T08:09:38.935Z,0.60
2022-12-17T08:14:59.334Z,0.60
2022-12-17T08:20:19.641Z,0.70
2022-12-17T08:25:41.300Z,0.70
2022-12-17T08:31:02.207Z,0.80
2022-12-17T08:36:34.483Z,0.90
2022-12-17T08:41:59.693Z,1.00
2022-12-17T08:47:24.750Z,1.10
2022-12-17T08:52:45.072Z,1.20
2022-12-17T08:58:12.521Z,1.30
2022-12-17T09:03:33.078Z,1.40
2022-12-17T09:08:53.441Z,1.40
2022-12-17T09:14:15.392Z,1.40
2022-12-17T09:19:41.257Z,1.50
2022-12-17T09:25:01.910Z,1.50
2022-12-17T09:30:25.004Z,1.50
2022-12-17T09:35:45.667Z,1.50
2022-12-17T09:41:09.496Z,1.60
2022-12-17T09:46:39.572Z,1.60
2022-12-17T09:52:00.652Z,1.60
2022-12-17T09:57:21.820Z,1.70
2022-12-17T10:02:45.893Z,1.80
2022-12-17T10:08:07.659Z,1.80
2022-12-17T10:13:35.389Z,1.80
2022-12-17T10:18:57.288Z,1.80
2022-12-17T10:24:25.248Z,1.90
2022-12-17T10:29:48.088Z,2.00
2022-12-17T10:35:11.467Z,2.20
2022-12-17T10:40:42.090Z,2.40
2022-12-17T10:46:12.348Z,2.40
2022-12-17T10:51:50.713Z,2.50
2022-12-17T10:57:14.126Z,2.60
2022-12-17T11:02:39.274Z,2.70
2022-12-17T11:08:02.882Z,2.80
2022-12-17T11:13:27.886Z,2.90
2022-12-17T11:18:55.476Z,3.00
2022-12-17T11:24:22.663Z,3.10
2022-12-17T11:29:43.944Z,3.20
2022-12-17T11:35:21.667Z,3.30
2022-12-17T11:40:52.851Z,3.40
2022-12-17T11:46:21.509Z,3.40
2022-12-17T11:51:49.072Z,3.50
2022-12-17T11:57:18.943Z,3.50
2022-12-17T12:02:55.673Z,3.50
2022-12-17T12:08:23.275Z,3.60
2022-12-17T12:13:54.387Z,3.70
2022-12-17T12:19:24.667Z,3.80
2022-12-17T12:24:58.677Z,3.90
2022-12-17T12:30:25.052Z,4.00
2022-12-17T12:35:47.948Z,4.00
2022-12-17T12:41:21.335Z,4.10
2022-12-17T12:46:46.725Z,4.10
2022-12-17T12:52:12.188Z,4.10
2022-12-17T12:57:50.247Z,4.10
2022-12-17T13:03:12.617Z,4.00
2022-12-17T13:08:23.219Z,4.00
2022-12-17T13:13:34.126Z,4.10
2022-12-17T13:18:40.953Z,4.10
2022-12-17T13:23:45.320Z,4.10
2022-12-17T13:29:11.488Z,4.10
2022-12-17T13:34:21.870Z,4.10
2022-12-17T13:39:35.150Z,4.20
2022-12-17T13:44:45.476Z,4.10
2022-12-17T13:50:31.781Z,4.20
2022-12-17T13:55:22.357Z,4.20
2022-12-17T14:00:28.320Z,4.20
2022-12-17T14:05:38.025Z,4.30
2022-12-17T14:10:48.620Z,4.30
2022-12-17T14:15:52.912Z,4.20
2022-12-17T14:20:57.581Z,4.20
2022-12-17T14:26:01.093Z,4.10
2022-12-17T14:36:34.571Z,4.00
2022-12-17T14:41:57.162Z,4.00
2022-12-17T14:47:13.426Z,3.80
2022-12-17T14:52:28.230Z,3.80
2022-12-17T14:57:31.331Z,3.70
2022-12-17T15:02:37.970Z,3.60
2022-12-17T15:07:42.887Z,3.60
2022-12-17T15:12:46.099Z,3.50
2022-12-17T15:17:49.262Z,3.40
2022-12-17T15:22:53.695Z,3.30
2022-12-17T15:27:56.963Z,3.20
2022-12-17T15:33:00.018Z,3.20
2022-12-17T15:38:05.323Z,3.10
2022-12-17T15:43:13.794Z,3.00
2022-12-17T15:48:18.843Z,2.90
2022-12-17T15:53:23.359Z,2.80
2022-12-17T15:58:26.486Z,2.70
2022-12-17T16:03:29.595Z,2.50
2022-12-17T16:08:34.351Z,2.40
2022-12-17T16:13:38.083Z,2.30
2022-12-17T16:18:41.553Z,2.10
2022-12-17T16:23:46.968Z,2.10
2022-12-17T16:28:51.071Z,2.00
2022-12-17T16:33:54.231Z,1.80
2022-12-17T16:38:58.935Z,1.70
2022-12-17T16:44:02.147Z,1.60
2022-12-17T16:49:07.230Z,1.50
2022-12-17T16:54:14.958Z,1.40
2022-12-17T16:59:18.379Z,1.30
2022-12-17T17:04:23.550Z,1.20
2022-12-17T17:09:28.119Z,1.00
2022-12-17T17:14:31.192Z,0.90
2022-12-17T17:19:34.325Z,0.70
2022-12-17T17:24:38.772Z,0.80
2022-12-17T17:29:41.816Z,0.60
2022-12-17T17:34:44.962Z,0.50
2022-12-17T17:39:49.451Z,0.40
2022-12-17T17:44:52.924Z,0.30
2022-12-17T17:49:56.027Z,0.20
2022-12-17T17:55:00.498Z,0.10
2022-12-17T18:00:04.253Z,0.00
2022-12-17T18:05:07.705Z,-0.20
2022-12-17T18:10:12.439Z,-0.20
2022-12-17T18:15:19.279Z,-0.30
2022-12-17T18:20:22.419Z,-0.30
2022-12-17T18:25:26.916Z,-0.40
2022-12-17T18:30:30.014Z,-0.50
2022-12-17T18:35:33.097Z,-0.50
2022-12-17T18:40:38.049Z,-0.60
2022-12-17T18:45:42.118Z,-0.70
2022-12-17T18:50:47.407Z,-0.70
2022-12-17T18:55:51.847Z,-0.80
2022-12-17T19:00:54.939Z,-0.80
2022-12-17T19:05:58.215Z,-0.90
2022-12-17T19:11:19.788Z,-1.00
2022-12-17T19:16:24.758Z,-1.10
2022-12-17T19:21:28.544Z,-1.20
2022-12-17T19:26:33.922Z,-1.30
2022-12-17T19:31:38.369Z,-1.30
2022-12-17T19:36:42.724Z,-1.40
2022-12-17T19:41:47.419Z,-1.40
2022-12-17T19:46:50.665Z,-1.50
2022-12-17T19:51:53.927Z,-1.50
2022-12-17T19:56:58.340Z,-1.60
2022-12-17T20:02:03.687Z,-1.60
2022-12-17T20:07:06.904Z,-1.70
2022-12-17T20:12:11.380Z,-1.70
2022-12-17T20:17:14.633Z,-1.80
2022-12-17T20:22:17.827Z,-2.00
2022-12-17T20:27:22.348Z,-2.10
2022-12-17T20:32:25.580Z,-2.10
2022-12-17T20:37:28.783Z,-2.20
2022-12-17T20:42:33.292Z,-2.20
2022-12-17T20:47:36.408Z,-2.20
2022-12-17T20:52:39.542Z,-2.30
2022-12-17T20:57:44.099Z,-2.30
2022-12-17T21:02:47.400Z,-2.30
2022-12-17T21:07:51.101Z,-2.40
2022-12-17T21:13:12.889Z,-2.50
2022-12-17T21:18:16.040Z,-2.60
2022-12-17T21:23:19.141Z,-2.70
2022-12-17T21:28:24.030Z,-2.80
2022-12-17T21:33:27.791Z,-3.00
2022-12-17T21:38:31.983Z,-2.90
2022-12-17T21:43:37.961Z,-3.00
2022-12-17T21:48:43.022Z,-3.20
2022-12-17T21:53:46.355Z,-3.20
2022-12-17T21:58:51.514Z,-3.10
2022-12-17T22:03:57.839Z,-3.10
2022-12-17T22:09:07.818Z,-3.00
2022-12-17T22:14:23.411Z,-3.00
2022-12-17T22:19:26.553Z,-2.90
2022-12-17T22:24:36.194Z,-2.90
2022-12-17T22:29:58.759Z,-2.80
2022-12-17T22:36:13.611Z,-2.80
2022-12-17T22:44:34.957Z,-2.70
2022-12-17T22:45:50.158Z,-2.70
2022-12-17T22:51:05.572Z,-2.60
2022-12-17T22:56:28.199Z,-2.70
2022-12-17T23:01:36.444Z,-2.60
2022-12-17T23:06:39.864Z,-2.60
2022-12-17T23:11:43.091Z,-2.60
2022-12-17T23:16:47.827Z,-2.60
2022-12-17T23:21:50.900Z,-2.50
2022-12-17T23:26:54.253Z,-2.40
2022-12-17T23:31:59.099Z,-2.40
2022-12-17T23:37:02.295Z,-2.30
2022-12-17T23:42:05.555Z,-2.20
2022-12-17T23:47:10.170Z,-2.10
2022-12-17T23:52:13.389Z,-2.00
2022-12-17T23:57:16.427Z,-2.00
